Time;durP1;ratioP1;P1;durP2;ratioP2;P2;SDS_P1;SDS_P2;PMS_P1;PMS_P2;Temp;Humidity;BMP_temperature;BMP_pressure;BME280_temperature;BME280_humidity;BME280_pressure;Samples;Min_cycle;Max_cycle;Signal;HPM_P1;HPM_P2
2021/09/18 12:18:25;;;;;;;22.15;17.35;;;27.40;47.90;;;;;;4935690;29;20141;-65
2021/09/18 12:20:53;;;;;;;22.17;16.45;;;27.70;49.80;;;;;;4952206;29;20020;-62
2021/09/18 12:23:19;;;;;;;17.77;15.20;;;32.40;41.20;;;;;;4952643;29;20073;-62
2021/09/18 12:25:56;;;;;;;19.25;16.48;;;35.40;45.00;;;;;;4933205;29;20492;-62
2021/09/18 12:28:22;;;;;;;18.80;16.88;;;36.80;29.40;;;;;;4953376;29;20034;-63
2021/09/18 12:30:48;;;;;;;17.90;16.02;;;36.90;28.20;;;;;;4936555;29;20051;-62
2021/09/18 12:33:25;;;;;;;17.45;15.60;;;35.20;28.90;;;;;;4952353;29;20119;-62
2021/09/18 12:35:50;;;;;;;18.10;16.25;;;36.30;26.90;;;;;;4954133;28;20042;-59
2021/09/18 12:38:17;;;;;;;17.25;15.65;;;36.90;26.00;;;;;;4956306;28;20023;-60
2021/09/18 12:40:44;;;;;;;20.25;18.15;;;38.90;23.90;;;;;;4939599;29;20062;-61
2021/09/18 12:43:13;;;;;;;19.05;17.10;;;40.10;22.60;;;;;;4956325;29;20043;-61
2021/09/18 12:45:39;;;;;;;18.77;16.98;;;40.50;21.30;;;;;;4957217;29;20024;-61
2021/09/18 12:48:25;;;;;;;18.88;17.08;;;40.70;20.60;;;;;;4938367;29;20091;-61
2021/09/18 12:51:05;;;;;;;17.77;16.08;;;41.90;17.50;;;;;;4939858;29;20448;-61
2021/09/18 12:53:34;;;;;;;20.30;18.25;;;41.00;18.00;;;;;;4954779;28;20019;-61
2021/09/18 12:56:18;;;;;;;19.00;17.25;;;39.50;19.70;;;;;;4956640;29;20039;-61
2021/09/18 12:58:51;;;;;;;;;;;37.50;21.00;;;;;;4956462;29;20495;-62
2021/09/18 13:01:18;;;;;;;20.33;18.23;;;34.90;23.90;;;;;;4957250;29;19910;-61
2021/09/18 13:03:44;;;;;;;19.35;17.45;;;33.20;27.60;;;;;;4938831;29;20023;-61
2021/09/18 13:06:12;;;;;;;20.10;18.10;;;33.90;27.60;;;;;;4956727;29;20031;-61
2021/09/18 13:08:49;;;;;;;20.65;18.65;;;35.90;23.90;;;;;;4955931;28;20023;-61
2021/09/18 13:11:18;;;;;;;19.27;17.48;;;35.70;25.00;;;;;;4955680;29;20043;-61
2021/09/18 13:13:45;;;;;;;20.25;17.33;;;38.00;22.60;;;;;;4955913;29;20062;-61
2021/09/18 13:16:11;;;;;;;16.60;15.05;;;39.50;21.10;;;;;;4956948;29;20066;-61
2021/09/18 13:18:36;;;;;;;15.70;14.18;;;39.80;19.80;;;;;;4962690;28;20043;-61
2021/09/18 13:21:02;;;;;;;21.73;19.52;;;41.50;19.40;;;;;;4956581;29;20389;-61
2021/09/18 13:23:28;;;;;;;18.75;16.70;;;40.70;19.00;;;;;;4960675;28;20114;-61
2021/09/18 13:25:54;;;;;;;18.38;16.52;;;40.80;18.60;;;;;;4975680;28;20026;-61
2021/09/18 13:28:20;;;;;;;18.83;17.02;;;40.50;19.20;;;;;;4973785;28;20119;-61
2021/09/18 13:30:45;;;;;;;19.35;17.25;;;38.80;19.60;;;;;;4956638;28;20034;-61
2021/09/18 13:33:12;;;;;;;18.08;16.23;;;37.60;20.80;;;;;;4973684;28;20054;-62
2021/09/18 13:35:37;;;;;;;19.92;17.75;;;35.50;22.90;;;;;;4963896;28;20098;-62
2021/09/18 13:38:03;;;;;;;18.60;16.65;;;34.40;23.70;;;;;;4936734;28;20032;-62
2021/09/18 13:40:28;;;;;;;17.67;15.88;;;35.70;23.40;;;;;;4967566;28;20058;-61
2021/09/18 13:42:54;;;;;;;17.17;15.55;;;35.60;23.20;;;;;;4955071;29;20027;-62
2021/09/18 13:45:19;;;;;;;16.73;15.13;;;35.80;23.00;;;;;;4955106;28;20028;-62
2021/09/18 13:47:45;;;;;;;15.88;14.45;;;36.20;22.90;;;;;;4938468;29;20362;-62
2021/09/18 13:50:11;;;;;;;17.25;15.55;;;35.70;23.00;;;;;;4937952;29;20043;-62
2021/09/18 13:52:36;;;;;;;15.82;14.30;;;34.80;22.90;;;;;;4955830;29;20042;-61
2021/09/18 13:55:03;;;;;;;17.85;16.25;;;33.50;25.10;;;;;;4969468;28;20480;-61
2021/09/18 13:57:28;;;;;;;17.00;15.27;;;32.70;26.50;;;;;;4975094;28;20117;-61
2021/09/18 13:59:54;;;;;;;17.08;15.27;;;32.20;26.60;;;;;;4960718;28;20110;-63
2021/09/18 14:02:20;;;;;;;18.20;16.33;;;32.50;27.30;;;;;;4954832;28;20511;-62
2021/09/18 14:04:45;;;;;;;16.77;15.13;;;31.70;27.50;;;;;;4970749;28;20077;-61
2021/09/18 14:07:11;;;;;;;17.05;15.30;;;31.50;29.00;;;;;;4974971;28;20027;-61
2021/09/18 14:09:36;;;;;;;16.95;15.25;;;31.30;29.30;;;;;;4946226;28;20123;-61
2021/09/18 14:12:04;;;;;;;19.25;17.25;;;31.20;29.00;;;;;;4972610;28;20122;-61
2021/09/18 14:14:29;;;;;;;16.90;13.23;;;31.10;29.30;;;;;;4947960;29;20015;-71
2021/09/18 14:16:55;;;;;;;15.90;13.35;;;31.10;29.60;;;;;;4967965;28;20560;-71
2021/09/18 14:19:20;;;;;;;18.60;13.45;;;31.00;30.10;;;;;;4959752;28;20101;-75
2021/09/18 14:21:46;;;;;;;17.95;15.65;;;30.50;30.90;;;;;;4965235;28;20086;-75
2021/09/18 14:24:11;;;;;;;17.60;14.50;;;30.30;32.10;;;;;;4957000;28;20037;-75
2021/09/18 14:26:37;;;;;;;15.00;12.60;;;30.10;32.60;;;;;;4974836;28;20043;-75
2021/09/18 14:29:03;;;;;;;18.13;15.32;;;29.90;33.10;;;;;;4972975;28;20534;-74
2021/09/18 14:31:28;;;;;;;17.13;15.35;;;29.50;33.80;;;;;;4966881;28;20042;-76
2021/09/18 14:33:56;;;;;;;15.88;14.02;;;30.30;32.90;;;;;;4962373;28;20050;-76
2021/09/18 14:36:22;;;;;;;16.80;15.32;;;31.00;31.10;;;;;;4955661;29;20409;-76
2021/09/18 14:38:47;;;;;;;14.55;13.05;;;32.50;29.10;;;;;;4954740;28;20027;-76
2021/09/18 14:41:13;;;;;;;17.33;15.50;;;31.60;29.90;;;;;;4937764;29;20500;-76
2021/09/18 14:43:39;;;;;;;12.75;11.52;;;30.60;31.10;;;;;;4954706;28;20049;-75
2021/09/18 14:46:04;;;;;;;15.48;13.02;;;31.40;30.50;;;;;;4954905;28;20389;-76
2021/09/18 14:48:30;;;;;;;17.80;13.77;;;30.50;31.20;;;;;;4955061;29;20023;-76
2021/09/18 14:50:56;;;;;;;16.77;15.00;;;30.10;32.50;;;;;;4953568;28;20073;-66
2021/09/18 14:53:22;;;;;;;16.15;13.40;;;29.80;33.20;;;;;;4950785;28;20125;-65
2021/09/18 14:55:48;;;;;;;17.63;14.68;;;29.30;34.30;;;;;;4972408;28;20062;-66
2021/09/18 14:58:14;;;;;;;15.95;14.52;;;29.10;35.00;;;;;;4972362;28;20545;-66
2021/09/18 15:00:39;;;;;;;14.20;12.02;;;28.80;35.50;;;;;;4970080;28;20122;-66
2021/09/18 15:03:05;;;;;;;13.88;12.18;;;28.70;36.40;;;;;;4968327;28;20050;-66
2021/09/18 15:05:31;;;;;;;15.15;13.20;;;28.70;36.00;;;;;;4943938;28;20063;-67
2021/09/18 15:07:56;;;;;;;25.25;14.60;;;28.70;36.40;;;;;;4934869;29;20117;-66
2021/09/18 15:10:22;;;;;;;14.25;12.65;;;28.50;36.60;;;;;;4947891;28;20046;-66
2021/09/18 15:12:48;;;;;;;13.02;11.73;;;29.30;35.20;;;;;;4967354;28;20066;-66
2021/09/18 15:15:13;;;;;;;15.55;13.75;;;30.70;31.60;;;;;;4949555;28;20358;-66
2021/09/18 15:17:39;;;;;;;14.15;12.75;;;29.70;32.80;;;;;;4953022;29;20374;-66
2021/09/18 15:20:06;;;;;;;14.15;12.73;;;29.30;33.90;;;;;;4960021;28;20055;-66
2021/09/18 15:22:31;;;;;;;15.65;13.27;;;28.80;35.70;;;;;;4973789;28;20520;-66
2021/09/18 15:24:57;;;;;;;16.85;12.77;;;28.70;36.80;;;;;;4946015;29;20068;-66
2021/09/18 15:27:22;;;;;;;13.93;12.27;;;29.30;34.80;;;;;;4949836;28;20146;-66
2021/09/18 15:29:48;;;;;;;12.93;10.07;;;29.60;34.20;;;;;;4971295;28;20031;-66
2021/09/18 15:32:14;;;;;;;14.85;11.27;;;29.90;33.90;;;;;;4956311;28;20428;-66
2021/09/18 15:34:39;;;;;;;14.80;11.63;;;30.20;33.00;;;;;;4969166;28;20034;-67
2021/09/18 15:37:05;;;;;;;13.77;12.23;;;29.70;34.10;;;;;;4971965;28;20031;-68
2021/09/18 15:39:31;;;;;;;13.38;11.93;;;30.10;33.80;;;;;;4971689;28;20488;-66
2021/09/18 15:41:56;;;;;;;15.30;10.80;;;30.00;33.80;;;;;;4973653;28;20027;-65
2021/09/18 15:44:22;;;;;;;12.98;11.60;;;29.90;33.60;;;;;;4967384;28;20117;-67
2021/09/18 15:46:49;;;;;;;17.23;11.77;;;29.70;34.10;;;;;;4939647;29;20035;-65
2021/09/18 15:49:20;;;;;;;16.77;11.20;;;29.30;34.80;;;;;;4923817;28;20047;-66
2021/09/18 15:51:47;;;;;;;15.68;11.52;;;29.20;34.60;;;;;;4950333;29;20122;-66
2021/09/18 15:54:13;;;;;;;12.73;10.80;;;28.80;35.80;;;;;;4953535;28;20023;-66
2021/09/18 15:56:38;;;;;;;12.45;11.18;;;28.50;37.00;;;;;;4955864;28;20042;-66
2021/09/18 15:59:04;;;;;;;14.40;11.32;;;28.10;37.80;;;;;;4954256;29;20454;-66
2021/09/18 16:01:30;;;;;;;14.25;12.55;;;27.80;43.00;;;;;;4967490;28;20042;-66
2021/09/18 16:03:56;;;;;;;13.10;11.70;;;;;;;;;;4971670;28;20109;-65
2021/09/18 16:06:22;;;;;;;15.35;13.25;;;;;;;;;;4958840;28;20505;-66
2021/09/18 16:08:47;;;;;;;12.98;11.68;;;27.20;62.40;;;;;;4954072;29;20030;-66
2021/09/18 16:11:13;;;;;;;14.18;12.30;;;27.10;41.70;;;;;;4962954;28;20093;-66
2021/09/18 16:13:38;;;;;;;14.02;11.90;;;27.00;60.50;;;;;;4975476;28;20105;-66
2021/09/18 16:16:04;;;;;;;14.07;12.07;;;27.00;62.80;;;;;;4965158;28;20037;-62
2021/09/18 16:18:30;;;;;;;15.55;13.27;;;27.10;63.60;;;;;;4951719;28;20047;-62
2021/09/18 16:20:56;;;;;;;14.88;13.07;;;27.00;65.50;;;;;;4976417;28;20026;-62
2021/09/18 16:23:21;;;;;;;17.67;14.82;;;26.90;66.60;;;;;;4976209;28;20023;-62
2021/09/18 16:25:47;;;;;;;15.88;13.90;;;26.80;48.80;;;;;;4974955;28;20532;-62
2021/09/18 16:28:15;;;;;;;17.45;13.55;;;26.70;48.00;;;;;;4976634;28;20066;-62
2021/09/18 16:30:41;;;;;;;16.20;14.27;;;26.70;49.80;;;;;;4975442;28;20095;-62
2021/09/18 16:33:07;;;;;;;16.63;14.93;;;26.70;55.00;;;;;;4976860;28;20049;-62
2021/09/18 16:35:33;;;;;;;15.70;12.88;;;26.70;76.60;;;;;;4976168;28;20476;-62
2021/09/18 16:37:58;;;;;;;15.57;13.38;;;26.50;70.80;;;;;;4976146;28;20065;-62
2021/09/18 16:40:24;;;;;;;15.95;14.35;;;26.50;71.30;;;;;;4975618;28;20078;-61
2021/09/18 16:42:50;;;;;;;15.50;13.88;;;26.40;63.90;;;;;;4976687;28;20027;-61
2021/09/18 16:45:16;;;;;;;16.10;13.82;;;26.40;70.90;;;;;;4975702;28;20177;-61
2021/09/18 16:47:41;;;;;;;15.70;13.90;;;26.30;72.20;;;;;;4976986;28;20027;-61
2021/09/18 16:50:09;;;;;;;20.38;17.35;;;26.20;71.00;;;;;;4976111;28;20453;-60
2021/09/18 16:52:35;;;;;;;16.55;14.13;;;26.20;45.40;;;;;;4958413;28;20381;-60
2021/09/18 16:55:02;;;;;;;14.00;12.60;;;26.20;50.40;;;;;;4975346;28;20023;-60
2021/09/18 16:57:28;;;;;;;15.85;14.07;;;26.20;58.20;;;;;;4940130;29;20062;-61
2021/09/18 16:59:54;;;;;;;16.35;14.02;;;26.10;75.20;;;;;;4963133;28;20027;-61
2021/09/18 17:02:20;;;;;;;16.70;14.35;;;26.00;70.20;;;;;;4975705;28;20081;-61
2021/09/18 17:04:46;;;;;;;18.90;14.57;;;25.90;46.20;;;;;;4975889;28;20030;-61
2021/09/18 17:07:12;;;;;;;16.55;14.85;;;25.90;47.30;;;;;;4956768;28;20031;-61
2021/09/18 17:09:38;;;;;;;17.30;15.45;;;25.80;46.80;;;;;;4976144;28;20049;-61
2021/09/18 17:12:04;;;;;;;19.27;16.17;;;25.80;47.50;;;;;;4973622;28;20489;-61
2021/09/18 17:14:30;;;;;;;17.25;15.55;;;25.80;51.70;;;;;;4976231;28;20023;-61
2021/09/18 17:16:57;;;;;;;22.13;15.63;;;25.90;65.80;;;;;;4975266;28;20089;-61
2021/09/18 17:19:22;;;;;;;17.20;15.38;;;25.80;75.40;;;;;;4975887;28;20047;-61
2021/09/18 17:21:48;;;;;;;16.52;14.68;;;25.70;72.70;;;;;;4974478;28;20169;-60
2021/09/18 17:24:14;;;;;;;19.05;17.05;;;25.70;66.90;;;;;;4975104;28;20035;-60
2021/09/18 17:26:40;;;;;;;19.20;17.13;;;25.70;65.70;;;;;;4974590;28;20412;-60
2021/09/18 17:29:06;;;;;;;23.52;19.73;;;25.60;52.60;;;;;;4976148;28;20027;-61
2021/09/18 17:31:32;;;;;;;29.20;26.10;;;25.50;49.00;;;;;;4972765;28;20035;-60
2021/09/18 17:33:58;;;;;;;24.40;20.38;;;25.50;49.40;;;;;;4956060;28;20026;-61
2021/09/18 17:36:23;;;;;;;23.30;20.40;;;25.50;49.20;;;;;;4973858;28;20049;-61
2021/09/18 17:38:49;;;;;;;24.38;21.05;;;25.50;49.40;;;;;;4974431;28;20510;-60
2021/09/18 17:41:15;;;;;;;26.25;22.80;;;25.40;49.60;;;;;;4974333;28;20118;-60
2021/09/18 17:43:41;;;;;;;37.10;30.38;;;25.40;49.90;;;;;;4973996;28;20023;-60
2021/09/18 17:46:07;;;;;;;22.23;19.90;;;25.40;50.30;;;;;;4974042;28;20039;-60
2021/09/18 17:48:32;;;;;;;23.90;21.30;;;25.40;50.10;;;;;;4975441;28;20022;-60
2021/09/18 17:50:58;;;;;;;35.75;28.13;;;25.30;50.10;;;;;;4973888;28;20057;-60
2021/09/18 17:53:24;;;;;;;23.40;19.48;;;25.40;50.40;;;;;;4975181;28;20023;-60
2021/09/18 17:55:50;;;;;;;24.13;21.00;;;25.30;50.70;;;;;;4974551;28;20431;-61
2021/09/18 17:58:16;;;;;;;27.13;23.42;;;25.30;50.70;;;;;;4973648;28;20358;-60
2021/09/18 18:00:42;;;;;;;41.05;33.80;;;25.20;50.90;;;;;;4973087;28;20387;-60
2021/09/18 18:03:08;;;;;;;31.85;25.42;;;25.30;50.90;;;;;;4974240;28;20031;-60
2021/09/18 18:05:34;;;;;;;58.55;24.45;;;25.30;51.00;;;;;;4973626;28;20037;-60
2021/09/18 18:08:00;;;;;;;29.05;21.70;;;25.30;51.10;;;;;;4975169;28;20031;-61
2021/09/18 18:10:25;;;;;;;28.48;25.52;;;25.20;51.40;;;;;;4973781;28;20039;-61
2021/09/18 18:12:51;;;;;;;23.63;20.02;;;25.20;51.40;;;;;;4974931;28;20497;-61
2021/09/18 18:15:17;;;;;;;24.60;21.55;;;25.20;51.70;;;;;;4974456;28;20396;-61
2021/09/18 18:17:42;;;;;;;20.23;18.08;;;25.10;51.60;;;;;;4972162;28;20125;-61
2021/09/18 18:20:10;;;;;;;30.10;22.02;;;25.20;51.40;;;;;;4975143;28;20473;-61
2021/09/18 18:22:38;;;;;;;30.58;23.63;;;25.30;51.80;;;;;;4971642;28;20022;-61
2021/09/18 18:25:07;;;;;;;31.35;27.42;;;25.30;51.80;;;;;;4973180;28;20030;-61
2021/09/18 18:27:33;;;;;;;21.58;19.02;;;25.40;51.40;;;;;;4974570;28;20041;-61
2021/09/18 18:29:58;;;;;;;27.50;24.02;;;25.40;51.70;;;;;;4983018;28;20038;-61
2021/09/18 18:32:24;;;;;;;33.88;28.92;;;25.40;51.50;;;;;;4975185;28;20034;-61
2021/09/18 18:34:50;;;;;;;26.60;23.73;;;25.40;51.70;;;;;;4971958;28;20023;-62
2021/09/18 18:37:16;;;;;;;28.83;24.92;;;25.30;51.50;;;;;;4973528;28;20388;-59
2021/09/18 18:39:41;;;;;;;69.82;41.50;;;25.40;51.60;;;;;;4974535;28;20385;-59
2021/09/18 18:42:07;;;;;;;316.23;160.13;;;25.30;51.50;;;;;;4973257;28;20527;-59
2021/09/18 18:44:33;;;;;;;101.30;77.80;;;25.30;51.80;;;;;;4974186;28;20062;-60
2021/09/18 18:46:58;;;;;;;60.22;45.55;;;25.30;51.80;;;;;;4972825;28;20085;-59
2021/09/18 18:49:24;;;;;;;90.93;80.88;;;25.30;51.70;;;;;;4974074;28;20027;-60
2021/09/18 18:51:49;;;;;;;35.95;29.52;;;25.30;51.80;;;;;;4969416;28;20053;-59
2021/09/18 18:54:15;;;;;;;44.13;35.47;;;25.30;51.80;;;;;;4971371;28;20473;-60
2021/09/18 18:56:41;;;;;;;28.02;24.70;;;25.30;51.80;;;;;;4970690;28;20027;-60
2021/09/18 18:59:06;;;;;;;43.88;38.97;;;25.30;51.70;;;;;;4974561;28;20473;-60
2021/09/18 19:01:32;;;;;;;24.08;21.48;;;25.30;52.00;;;;;;4972440;28;20045;-60
2021/09/18 19:03:58;;;;;;;22.40;19.83;;;25.30;52.10;;;;;;4974080;28;20109;-60
2021/09/18 19:06:23;;;;;;;25.60;20.83;;;25.20;52.00;;;;;;4972870;28;20065;-60
2021/09/18 19:08:49;;;;;;;21.65;17.17;;;25.20;52.30;;;;;;4974091;28;20362;-60
2021/09/18 19:11:14;;;;;;;20.73;18.40;;;25.20;52.30;;;;;;4971638;28;20089;-60
2021/09/18 19:13:40;;;;;;;31.63;26.67;;;25.20;52.30;;;;;;4974141;28;20130;-61
2021/09/18 19:16:05;;;;;;;28.42;23.60;;;25.30;52.30;;;;;;4972716;28;20543;-61
2021/09/18 19:18:31;;;;;;;36.42;28.17;;;25.30;52.60;;;;;;4973985;28;20087;-61
2021/09/18 19:20:57;;;;;;;46.25;36.05;;;25.20;52.80;;;;;;4970982;28;20384;-61
2021/09/18 19:23:23;;;;;;;28.48;23.65;;;25.20;52.70;;;;;;4971801;28;20376;-61
2021/09/18 19:25:49;;;;;;;30.42;25.17;;;25.20;52.80;;;;;;4976259;28;20081;-60
2021/09/18 19:28:14;;;;;;;29.65;22.33;;;25.30;52.90;;;;;;4973565;28;20026;-61
2021/09/18 19:30:40;;;;;;;35.80;27.60;;;25.20;52.90;;;;;;4982115;28;20034;-61
2021/09/18 19:33:07;;;;;;;33.22;25.85;;;25.20;52.60;;;;;;4970945;28;20026;-61
2021/09/18 19:35:33;;;;;;;35.60;28.02;;;25.20;52.40;;;;;;4955257;28;20083;-61
2021/09/18 19:37:59;;;;;;;103.95;84.50;;;25.10;52.10;;;;;;4974716;28;20040;-61
2021/09/18 19:40:27;;;;;;;28.40;24.80;;;24.70;54.00;;;;;;4973249;28;20029;-61
2021/09/18 19:42:57;;;;;;;38.42;30.92;;;24.30;55.60;;;;;;4952704;28;20125;-60
2021/09/18 19:45:23;;;;;;;30.80;24.40;;;24.10;56.10;;;;;;4944568;28;20038;-60
2021/09/18 19:47:50;;;;;;;46.45;23.20;;;23.90;56.40;;;;;;4972158;28;20031;-60
2021/09/18 19:50:16;;;;;;;30.30;20.60;;;22.60;99.90;;;;;;4973789;28;20491;-60
2021/09/18 19:52:42;;;;;;;33.78;27.10;;;21.60;99.90;;;;;;4987144;28;20105;-60
2021/09/18 19:55:08;;;;;;;13.55;11.63;;;21.20;99.90;;;;;;4997236;28;20038;-60
2021/09/18 19:57:34;;;;;;;16.92;13.07;;;21.00;99.90;;;;;;4976886;28;20023;-60
2021/09/18 20:00:00;;;;;;;15.82;11.27;;;21.00;99.90;;;;;;4968625;28;20082;-60
2021/09/18 20:02:27;;;;;;;38.25;17.83;;;20.90;99.90;;;;;;4969046;28;20022;-60
2021/09/18 20:04:52;;;;;;;33.13;20.92;;;20.70;99.90;;;;;;4966873;28;20041;-60
2021/09/18 20:07:18;;;;;;;26.77;18.13;;;20.50;99.90;;;;;;4958980;28;20118;-60
2021/09/18 20:09:44;;;;;;;38.53;22.40;;;20.50;99.90;;;;;;4976812;28;20031;-60
2021/09/18 20:12:09;;;;;;;34.97;20.65;;;20.30;99.90;;;;;;4974411;28;20041;-60
2021/09/18 20:14:35;;;;;;;27.45;19.05;;;20.30;99.90;;;;;;4976157;28;20039;-60
2021/09/18 20:17:01;;;;;;;21.33;15.65;;;20.30;99.90;;;;;;4972928;28;20043;-60
2021/09/18 20:19:26;;;;;;;20.95;14.40;;;20.40;99.90;;;;;;4975382;28;20230;-60
2021/09/18 20:21:52;;;;;;;19.65;14.23;;;20.30;99.90;;;;;;4973924;28;20038;-60
2021/09/18 20:24:18;;;;;;;20.83;15.38;;;20.10;99.90;;;;;;4974086;28;20447;-60
2021/09/18 20:26:43;;;;;;;22.80;15.93;;;20.20;99.90;;;;;;4973575;28;20038;-60
2021/09/18 20:29:09;;;;;;;24.83;19.85;;;20.40;99.90;;;;;;4970327;28;20031;-60
2021/09/18 20:31:35;;;;;;;25.42;18.42;;;20.00;99.90;;;;;;4973159;28;20385;-60
2021/09/18 20:34:00;;;;;;;24.80;19.85;;;20.20;99.90;;;;;;4973756;28;20440;-59
2021/09/18 20:36:26;;;;;;;35.67;26.65;;;20.30;99.90;;;;;;4974077;28;20035;-60
2021/09/18 20:38:51;;;;;;;24.77;17.63;;;20.30;99.90;;;;;;4961818;28;20481;-59
2021/09/18 20:41:17;;;;;;;22.00;17.40;;;20.20;99.90;;;;;;4967789;28;20030;-59
2021/09/18 20:43:43;;;;;;;24.55;17.98;;;20.20;99.90;;;;;;4975417;28;20027;-59
2021/09/18 20:46:08;;;;;;;27.60;21.63;;;20.30;99.90;;;;;;4971559;28;20397;-59
2021/09/18 20:48:34;;;;;;;29.35;22.35;;;20.40;99.90;;;;;;4974373;28;20062;-60
2021/09/18 20:50:59;;;;;;;27.05;20.80;;;20.40;99.90;;;;;;4972890;28;20046;-60
2021/09/18 20:53:25;;;;;;;28.25;21.60;;;20.50;99.90;;;;;;4971638;28;20061;-59
2021/09/18 20:55:51;;;;;;;26.08;19.83;;;20.40;99.90;;;;;;4976276;28;20037;-60
2021/09/18 20:58:26;;;;;;;27.20;22.75;;;20.40;99.90;;;;;;4973392;28;20034;-60
2021/09/18 21:00:55;;;;;;;46.72;38.05;;;20.30;99.90;;;;;;4971934;28;20537;-60
2021/09/18 21:06:05;;;;;;;39.35;29.85;;;20.40;99.90;;;;;;4976389;28;20077;-60
2021/09/18 21:08:32;;;;;;;36.17;27.67;;;20.30;99.90;;;;;;4974264;28;20066;-60
2021/09/18 21:10:57;;;;;;;28.42;22.00;;;20.50;99.90;;;;;;4958786;28;20054;-60
2021/09/18 21:13:23;;;;;;;33.58;26.60;;;20.70;99.90;;;;;;4973837;28;20437;-60
2021/09/18 21:15:49;;;;;;;30.95;27.05;;;20.40;99.90;;;;;;4971925;28;20027;-59
2021/09/18 21:18:15;;;;;;;36.15;30.45;;;20.50;99.90;;;;;;4974250;28;20126;-59
2021/09/18 21:20:41;;;;;;;29.00;23.83;;;20.30;99.90;;;;;;4973252;28;20061;-60
2021/09/18 21:23:07;;;;;;;27.42;21.98;;;20.30;99.90;;;;;;4950892;28;20027;-59
2021/09/18 21:25:32;;;;;;;26.98;21.90;;;20.40;99.90;;;;;;4977298;28;20085;-59
2021/09/18 21:27:59;;;;;;;22.95;19.00;;;20.10;99.90;;;;;;4986707;28;20109;-59
2021/09/18 21:30:25;;;;;;;27.35;21.85;;;19.90;99.90;;;;;;4981597;28;20043;-60
2021/09/18 21:32:51;;;;;;;20.83;16.95;;;20.30;99.90;;;;;;4976099;28;20018;-60
2021/09/18 21:35:17;;;;;;;31.10;24.15;;;20.10;99.90;;;;;;4976837;28;20365;-60
2021/09/18 21:37:42;;;;;;;34.08;26.88;;;20.30;99.90;;;;;;4983768;28;20026;-60
2021/09/18 21:40:08;;;;;;;33.05;26.52;;;20.10;99.90;;;;;;4952626;28;20085;-59
2021/09/18 21:42:34;;;;;;;25.33;20.77;;;20.00;99.90;;;;;;4971212;28;20031;-59
2021/09/18 21:45:00;;;;;;;22.17;19.58;;;20.00;99.90;;;;;;4982707;28;20027;-59
2021/09/18 21:47:25;;;;;;;29.33;26.10;;;19.90;99.90;;;;;;4975473;28;20026;-60
2021/09/18 21:49:51;;;;;;;22.73;19.73;;;19.90;99.90;;;;;;4977013;28;20054;-60
2021/09/18 21:52:16;;;;;;;14.63;13.18;;;19.80;99.90;;;;;;4980082;28;20473;-60
2021/09/18 21:54:42;;;;;;;22.48;19.27;;;19.80;99.90;;;;;;4972472;28;20128;-60
2021/09/18 21:57:08;;;;;;;20.17;17.42;;;19.80;99.90;;;;;;4983291;28;20448;-60
2021/09/18 21:59:33;;;;;;;18.88;16.20;;;20.10;99.90;;;;;;4989194;28;20026;-60
2021/09/18 22:01:59;;;;;;;22.50;19.15;;;20.20;99.90;;;;;;4979100;28;20148;-60
2021/09/18 22:04:24;;;;;;;21.40;17.45;;;20.30;99.90;;;;;;4973375;28;20027;-60
2021/09/18 22:06:50;;;;;;;22.02;17.23;;;20.40;99.90;;;;;;4975376;28;20038;-60
2021/09/18 22:09:16;;;;;;;23.95;19.05;;;20.00;99.90;;;;;;4959523;28;20022;-60
2021/09/18 22:11:41;;;;;;;20.08;17.42;;;20.00;99.90;;;;;;4971714;28;20042;-60
2021/09/18 22:14:07;;;;;;;19.27;17.05;;;20.10;99.90;;;;;;4970115;28;20103;-59
2021/09/18 22:16:35;;;;;;;16.27;14.57;;;20.10;99.90;;;;;;4969473;28;20065;-60
2021/09/18 22:19:02;;;;;;;32.72;28.83;;;20.20;99.90;;;;;;4981653;28;20038;-60
2021/09/18 22:21:28;;;;;;;25.10;22.00;;;20.00;99.90;;;;;;4975758;28;20031;-60
2021/09/18 22:23:57;;;;;;;24.70;22.08;;;20.00;99.90;;;;;;4979728;28;20053;-60
2021/09/18 22:26:23;;;;;;;18.83;16.67;;;20.10;99.90;;;;;;4983379;28;20019;-60
2021/09/18 22:28:49;;;;;;;18.98;16.45;;;20.10;99.90;;;;;;4969269;28;20031;-60
2021/09/18 22:31:16;;;;;;;31.98;23.92;;;20.20;99.90;;;;;;4967505;28;20035;-60
2021/09/18 22:33:42;;;;;;;33.10;27.02;;;20.00;99.90;;;;;;4973092;28;20025;-60
2021/09/18 22:36:10;;;;;;;36.78;29.35;;;20.10;99.90;;;;;;4987447;28;20714;-60
2021/09/18 22:38:36;;;;;;;28.98;23.15;;;20.20;99.90;;;;;;4978899;28;20034;-60
2021/09/18 22:41:05;;;;;;;36.30;27.20;;;20.20;99.90;;;;;;4973849;28;20054;-60
2021/09/18 22:43:32;;;;;;;18.95;16.95;;;20.30;99.90;;;;;;4978635;28;20112;-60
2021/09/18 22:45:57;;;;;;;25.50;20.88;;;20.20;99.90;;;;;;4987997;28;20034;-60
2021/09/18 22:48:23;;;;;;;21.70;16.80;;;20.20;99.90;;;;;;4976952;28;20031;-60
2021/09/18 22:50:49;;;;;;;16.20;14.45;;;20.20;99.90;;;;;;4974812;28;20038;-60
2021/09/18 22:53:14;;;;;;;17.83;16.00;;;20.30;99.90;;;;;;4973424;28;20396;-60
2021/09/18 22:55:40;;;;;;;21.75;18.33;;;20.20;99.90;;;;;;4974633;28;20034;-60
2021/09/18 22:58:06;;;;;;;22.63;18.02;;;20.10;99.90;;;;;;4975236;28;20481;-60
2021/09/18 23:00:32;;;;;;;28.65;24.15;;;20.10;99.90;;;;;;4976147;28;20035;-60
2021/09/18 23:02:57;;;;;;;23.52;19.58;;;20.00;99.90;;;;;;4978886;28;20026;-60
2021/09/18 23:05:24;;;;;;;30.20;23.63;;;20.10;99.90;;;;;;4974160;28;20412;-60
2021/09/18 23:07:50;;;;;;;25.17;20.88;;;20.10;99.90;;;;;;4955736;28;20839;-60
2021/09/18 23:10:16;;;;;;;23.08;17.85;;;20.10;99.90;;;;;;4953344;28;20072;-60
2021/09/18 23:12:42;;;;;;;27.67;23.52;;;20.00;99.90;;;;;;4963207;28;20030;-60
2021/09/18 23:15:08;;;;;;;24.77;21.55;;;20.10;99.90;;;;;;4979931;28;20054;-60
2021/09/18 23:17:34;;;;;;;20.17;18.08;;;20.10;99.90;;;;;;4976064;28;20046;-60
2021/09/18 23:20:02;;;;;;;18.13;16.23;;;20.30;99.90;;;;;;4974918;28;20030;-59
2021/09/18 23:22:27;;;;;;;16.73;15.00;;;20.20;99.90;;;;;;4967390;28;20086;-59
2021/09/18 23:24:53;;;;;;;16.05;13.25;;;20.10;99.90;;;;;;4960105;28;20031;-59
2021/09/18 23:27:19;;;;;;;15.40;13.90;;;20.00;99.90;;;;;;4972718;28;20047;-59
2021/09/18 23:29:45;;;;;;;16.25;14.55;;;20.10;99.90;;;;;;4986613;28;20383;-59
2021/09/18 23:32:11;;;;;;;24.40;20.35;;;20.20;99.90;;;;;;4978943;28;20048;-59
2021/09/18 23:34:36;;;;;;;21.50;18.88;;;20.00;99.90;;;;;;4971728;28;20472;-59
2021/09/18 23:37:02;;;;;;;15.68;14.07;;;20.10;99.90;;;;;;4974378;28;20023;-60
2021/09/18 23:39:27;;;;;;;17.88;14.00;;;20.10;99.90;;;;;;4972400;28;20077;-59
2021/09/18 23:41:53;;;;;;;18.25;16.35;;;20.10;99.90;;;;;;4979788;28;20389;-59
2021/09/18 23:44:19;;;;;;;21.25;15.27;;;20.10;99.90;;;;;;4975370;28;20185;-59
2021/09/18 23:46:45;;;;;;;15.02;13.00;;;20.10;99.90;;;;;;4973574;28;20030;-59
2021/09/18 23:49:11;;;;;;;15.30;13.80;;;20.10;99.90;;;;;;4972308;28;20034;-59
2021/09/18 23:51:36;;;;;;;13.82;12.38;;;20.10;99.90;;;;;;4987799;28;20045;-59
2021/09/18 23:54:02;;;;;;;13.68;11.35;;;20.10;99.90;;;;;;4978343;28;20034;-59
2021/09/18 23:56:28;;;;;;;12.85;11.27;;;20.10;99.90;;;;;;4980257;28;20031;-59
2021/09/18 23:58:54;;;;;;;14.75;12.90;;;20.00;99.90;;;;;;4969388;28;20039;-59
